• Join FlightAware (Why Join?)
  • Login
  • US Flag 
03:48AM EDT


 

Airport Tracker/Info


-or-


 

Live Flight TrackerFlight Track Log ✈ N570DB ✈ 10-Jul-2013 ✈ KHWO - KTPF

Flight Track Log - Related Links

Times and Time Zones

All times are in EDT time to prevent confusion due to time zone crossing. See the N570DB flight status page for this flight to view local times or setup timezone preferences in your user account.

Time Position Orientation Groundspeed Altitude Reporting Facility
EDT Latitude Longitude Course Direction KTS MPH feet Rate Location/Type
11:31AM 26.0036 -80.2456 328° Northwest 90 104 200  Level Miami Center
11:32AM 26.0242 -80.2600 328° Northwest 111 128 1,000 780 Climbing Miami Center
11:33AM 26.0169 -80.2969 258° West 130 150 1,800 420 Climbing Miami Center
11:34AM 26.0117 -80.3383 262° West 136 157 1,900  Climbing Miami Center
11:35AM 26.0089 -80.3775 265° West 138 159 1,900  Level Miami Center
11:36AM 26.0075 -80.4283 268° West 140 161 2,000  Climbing Miami Center
11:37AM 26.0044 -80.4722 266° West 138 159 2,000 60 Level Miami Center
11:38AM 26.0011 -80.5161 265° West 136 157 2,200 360 Climbing Miami Center
11:39AM 25.9981 -80.5528 265° West 126 145 2,800 540 Climbing Miami Center
11:40AM 25.9972 -80.5944 269° West 125 144 3,400 540 Climbing Miami Center
11:41AM 25.9964 -80.6292 268° West 117 135 3,900 240 Climbing Miami Center
11:42AM 25.9953 -80.6683 268° West 137 158 3,900  Level Miami Center
11:43AM 26.0067 -80.7125 286° West 140 161 3,900  Level Miami Center
11:44AM 26.0308 -80.7433 311° West 142 163 3,900  Level Miami Center
11:45AM 26.0639 -80.7561 341° North 144 166 4,000  Climbing Miami Center
11:46AM 26.0947 -80.7781 327° Northwest 149 171 4,000  Level Miami Center
11:47AM 26.1317 -80.8000 332° Northwest 149 171 4,000 60 Level Miami Center
11:48AM 26.1667 -80.8219 331° Northwest 149 171 4,200 300 Climbing Miami Center
11:49AM 26.1994 -80.8392 335° Northwest 143 165 4,700 540 Climbing Miami Center
11:50AM 26.2303 -80.8611 327° Northwest 137 158 5,300 600 Climbing Miami Center
11:51AM 26.2611 -80.8806 331° Northwest 127 146 6,000 540 Climbing Miami Center
11:52AM 26.2936 -80.9094 321° Northwest 132 152 6,400 420 Climbing Miami Center
11:53AM 26.3203 -80.9336 321° Northwest 137 158 6,900 540 Climbing Miami Center
11:54AM 26.3528 -80.9625 321° Northwest 137 158 7,500 540 Climbing Miami Center
11:55AM 26.3792 -80.9867 321° Northwest 136 157 8,000 300 Climbing Miami Center
11:56AM 26.4139 -81.0181 321° Northwest 147 169 8,100  Climbing Miami Center
11:57AM 26.4506 -81.0517 321° Northwest 150 173 8,000 -60 Descending Miami Center
11:58AM 26.4769 -81.0736 323° Northwest 150 173 8,000  Level Miami Center
11:59AM 26.5094 -81.1028 321° Northwest 155 178 8,000  Level Miami Center
12:00PM 26.5442 -81.1342 321° Northwest 155 178 8,000  Level Miami Center
12:01PM 26.5808 -81.1656 323° Northwest 155 178 8,000  Level Miami Center
12:02PM 26.6111 -81.1944 320° Northwest 149 171 8,000  Level Miami Center
12:03PM 26.6439 -81.2236 322° Northwest 149 171 8,000  Level Miami Center
12:04PM 26.6764 -81.2528 321° Northwest 149 171 8,000  Level Miami Center
12:05PM 26.7067 -81.2842 317° Northwest 149 171 8,000  Level Miami Center
12:06PM 26.7392 -81.3108 324° Northwest 149 171 8,000  Level Miami Center
12:07PM 26.7697 -81.3400 320° Northwest 149 171 8,000  Level Miami Center
12:08PM 26.8042 -81.3717 321° Northwest 149 171 8,000  Level Miami Center
12:09PM 26.8367 -81.3983 324° Northwest 144 166 8,000  Level Miami Center
12:10PM 26.8606 -81.4342 307° West 144 166 8,000  Level Miami Center
12:11PM 26.8886 -81.4750 308° West 149 171 8,000  Level Miami Center
12:12PM 26.9064 -81.5058 303° West 149 171 8,000  Level Miami Center
12:13PM 26.9281 -81.5439 303° West 155 178 8,000 -60 Level Miami Center
12:14PM 26.9481 -81.5775 304° West 149 171 7,900 -60 Descending Miami Center
12:15PM 26.9697 -81.6178 301° West 149 171 7,900  Level Miami Center
12:16PM 26.9914 -81.6561 302° West 149 171 7,900  Level Miami Center
12:17PM 27.0236 -81.6922 315° West 149 171 7,900  Level Miami Center
12:18PM 27.0536 -81.7239 317° Northwest 149 171 7,900  Level Miami Center
12:19PM 27.0861 -81.7556 319° Northwest 149 171 7,900  Level Miami Center
12:20PM 27.1164 -81.7872 317° Northwest 149 171 7,900  Level Miami Center
12:21PM 27.1467 -81.8142 322° Northwest 149 171 7,900  Level Miami Center
12:22PM 27.1769 -81.8458 317° Northwest 149 171 7,900  Level Miami Center
12:23PM 27.2072 -81.8775 317° Northwest 149 171 7,900  Level Miami Center
12:24PM 27.2353 -81.9067 317° Northwest 143 165 7,900 -240 Level Miami Center
12:25PM 27.2656 -81.9383 317° Northwest 148 170 7,500 -420 Descending Miami Center
12:26PM 27.2956 -81.9722 315° West 148 170 7,100 -420 Descending Miami Center
12:27PM 27.3278 -82.0042 319° Northwest 148 170 6,700 -480 Descending Miami Center
12:28PM 27.3603 -82.0361 319° Northwest 148 170 6,200 -540 Descending Miami Center
12:29PM 27.3903 -82.0700 315° West 148 170 5,700 -600 Descending Miami Center
12:30PM 27.4206 -82.0994 319° Northwest 148 170 5,000 -720 Descending Miami Center
12:31PM 27.4528 -82.1292 321° Northwest 148 170 4,300 -540 Descending Miami Center
12:32PM 27.4808 -82.1608 315° West 143 165 4,000 -120 Descending Miami Center
12:33PM 27.5111 -82.1878 322° Northwest 143 165 4,100 -60 Climbing Miami Center
12:34PM 27.5394 -82.2125 322° Northwest 137 158 3,900 -360 Descending Miami Center
12:35PM 27.5739 -82.2422 323° Northwest 137 158 3,400 -360 Descending Miami Center
12:36PM 27.6003 -82.2575 333° Northwest 137 158 3,200 1,260 Descending Miami Center
12:37PM 27.6328 -82.2872 321° Northwest 137 158 6,000 -60 Climbing Miami Center
12:38PM 27.6833 -82.3167 333° Northwest 132 152 3,100 -1,320 Descending Tampa TRACON
12:39PM 27.7167 -82.3333 336° Northwest 133 153 3,200 60 Climbing Tampa TRACON